createdAt,value
2022-08-02T00:01:37.995Z,1.50
2022-08-02T00:06:42.958Z,1.40
2022-08-02T00:11:47.885Z,1.70
2022-08-02T00:16:55.699Z,1.63
2022-08-02T00:22:00.619Z,1.60
2022-08-02T00:27:09.506Z,1.90
2022-08-02T00:32:17.449Z,1.43
2022-08-02T00:37:22.461Z,1.40
2022-08-02T00:42:27.444Z,1.57
2022-08-02T00:47:35.056Z,1.70
2022-08-02T00:52:39.997Z,1.70
2022-08-02T00:57:44.995Z,1.70
2022-08-02T01:02:52.841Z,1.50
2022-08-02T01:07:58.051Z,1.83
2022-08-02T01:13:03.055Z,1.77
2022-08-02T01:18:16.103Z,2.07
2022-08-02T01:23:38.452Z,1.60
2022-08-02T01:28:53.743Z,1.90
2022-08-02T01:34:06.006Z,1.80
2022-08-02T01:39:26.442Z,1.60
2022-08-02T01:44:44.435Z,1.70
2022-08-02T01:49:54.006Z,2.10
2022-08-02T01:55:04.377Z,1.60
2022-08-02T02:00:14.146Z,1.70
2022-08-02T02:05:22.284Z,1.70
2022-08-02T02:10:29.642Z,1.90
2022-08-02T02:15:38.353Z,1.70
2022-08-02T02:20:46.441Z,1.70
2022-08-02T02:25:52.349Z,1.77
2022-08-02T02:31:08.183Z,1.83
2022-08-02T02:36:14.495Z,2.00
2022-08-02T02:41:21.223Z,1.83
2022-08-02T02:46:29.785Z,2.07
2022-08-02T02:51:35.419Z,2.00
2022-08-02T02:56:40.977Z,1.80
2022-08-02T03:01:57.322Z,1.90
2022-08-02T03:07:04.175Z,2.00
2022-08-02T03:12:12.597Z,1.97
2022-08-02T03:17:26.269Z,2.20
2022-08-02T03:22:32.659Z,2.47
2022-08-02T03:27:37.801Z,2.10
2022-08-02T03:32:51.346Z,2.13
2022-08-02T03:37:58.661Z,2.30
2022-08-02T03:43:04.863Z,2.30
2022-08-02T03:48:34.316Z,2.00
2022-08-02T03:53:39.856Z,2.10
2022-08-02T03:58:49.020Z,2.13
2022-08-02T04:03:57.062Z,2.63
2022-08-02T04:09:02.060Z,2.43
2022-08-02T04:14:11.517Z,2.63
2022-08-02T04:19:24.846Z,2.50
2022-08-02T04:24:33.685Z,2.50
2022-08-02T04:29:43.949Z,2.40
2022-08-02T04:35:18.215Z,2.90
2022-08-02T04:40:19.867Z,2.73
2022-08-02T04:45:25.958Z,2.33
2022-08-02T04:50:33.595Z,2.60
2022-08-02T04:55:38.639Z,2.93
2022-08-02T05:00:43.841Z,3.17
2022-08-02T05:05:51.381Z,2.27
2022-08-02T05:10:59.313Z,3.00
2022-08-02T05:16:04.740Z,2.50
2022-08-02T05:21:12.688Z,3.00
2022-08-02T05:26:18.183Z,2.80
2022-08-02T05:31:25.432Z,3.40
2022-08-02T05:36:33.662Z,3.17
2022-08-02T05:41:38.744Z,2.93
2022-08-02T05:46:43.731Z,3.07
2022-08-02T05:52:00.555Z,2.67
2022-08-02T05:57:09.948Z,2.60
2022-08-02T06:02:30.367Z,3.13
2022-08-02T06:07:39.978Z,2.10
2022-08-02T06:12:51.215Z,2.20
2022-08-02T06:17:56.290Z,2.47
2022-08-02T06:23:04.586Z,2.50
2022-08-02T06:28:10.638Z,2.08
2022-08-02T06:33:16.655Z,2.05
2022-08-02T06:38:26.943Z,2.40
2022-08-02T06:43:37.731Z,1.90
2022-08-02T06:48:44.424Z,2.53
2022-08-02T06:53:53.053Z,1.65
2022-08-02T06:58:58.370Z,2.22
2022-08-02T07:04:04.330Z,1.67
2022-08-02T07:09:20.401Z,1.55
2022-08-02T07:14:26.142Z,1.65
2022-08-02T07:19:37.804Z,1.50
2022-08-02T07:24:45.884Z,3.88
2022-08-02T07:29:51.197Z,2.05
2022-08-02T07:34:57.096Z,1.80
2022-08-02T07:40:08.814Z,4.68
2022-08-02T07:45:18.021Z,2.28
2022-08-02T07:50:24.262Z,1.63
2022-08-02T07:55:39.339Z,3.22
2022-08-02T08:00:46.624Z,2.10
2022-08-02T08:05:52.885Z,1.58
2022-08-02T08:11:25.889Z,2.13
2022-08-02T08:16:37.682Z,1.65
2022-08-02T08:21:43.270Z,1.63
2022-08-02T08:26:51.447Z,1.70
2022-08-02T08:31:56.933Z,1.95
2022-08-02T08:37:02.591Z,1.73
2022-08-02T08:42:12.387Z,1.42
2022-08-02T08:47:17.935Z,1.50
2022-08-02T08:52:26.704Z,2.40
2022-08-02T08:57:40.838Z,2.58
2022-08-02T09:02:47.033Z,2.40
2022-08-02T09:07:54.263Z,1.80
2022-08-02T09:13:31.370Z,2.50
2022-08-02T09:18:37.401Z,2.70
2022-08-02T09:23:44.409Z,2.25
2022-08-02T09:28:55.714Z,2.75
2022-08-02T09:34:01.865Z,2.88
2022-08-02T09:39:09.405Z,2.83
2022-08-02T09:44:18.217Z,3.45
2022-08-02T09:49:23.179Z,2.53
2022-08-02T09:54:31.423Z,2.70
2022-08-02T09:59:39.343Z,3.20
2022-08-02T10:04:53.334Z,2.08
2022-08-02T10:10:02.844Z,2.20
2022-08-02T11:07:15.294Z,1.98
2022-08-02T11:13:09.664Z,1.58
2022-08-02T11:18:32.839Z,1.58
2022-08-02T11:23:56.349Z,1.63
2022-08-02T11:29:15.420Z,1.40
2022-08-02T11:40:19.956Z,1.60
2022-08-02T13:27:49.550Z,1.30
2022-08-02T13:33:00.934Z,1.00
2022-08-02T13:38:15.886Z,1.20
2022-08-02T13:43:53.559Z,1.55
2022-08-02T13:49:19.474Z,1.50
2022-08-02T13:54:39.479Z,1.00
2022-08-02T13:59:59.121Z,1.20
2022-08-02T14:22:38.518Z,1.67
2022-08-02T14:27:44.018Z,1.33
2022-08-02T14:32:54.697Z,1.77
2022-08-02T14:49:38.301Z,2.47
2022-08-02T14:55:24.075Z,1.80
2022-08-02T15:00:40.409Z,2.28
2022-08-02T15:05:52.286Z,1.55
2022-08-02T15:11:03.268Z,1.08
2022-08-02T15:16:16.358Z,1.55
2022-08-02T15:21:40.701Z,1.42
2022-08-02T15:26:51.055Z,1.40
2022-08-02T15:32:00.141Z,1.13
2022-08-02T15:37:10.904Z,1.10
2022-08-02T15:42:18.572Z,1.20
2022-08-02T15:47:31.355Z,0.98
2022-08-02T15:52:39.765Z,1.27
2022-08-02T15:57:46.908Z,1.25
2022-08-02T16:02:55.541Z,1.35
2022-08-02T16:08:01.293Z,1.20
2022-08-02T16:13:20.048Z,1.20
2022-08-02T16:18:29.650Z,1.00
2022-08-02T16:24:02.699Z,1.33
2022-08-02T16:35:07.602Z,1.13
2022-08-02T16:40:20.945Z,1.13
2022-08-02T16:46:06.631Z,1.13
2022-08-02T16:51:27.103Z,1.40
2022-08-02T17:02:18.152Z,1.60
2022-08-02T17:08:08.347Z,1.48
2022-08-02T17:13:12.196Z,1.23
2022-08-02T17:18:19.837Z,1.60
2022-08-02T17:24:04.047Z,1.30
2022-08-02T17:29:15.812Z,1.65
2022-08-02T17:34:29.611Z,1.80
2022-08-02T17:39:44.279Z,1.42
2022-08-02T17:45:00.914Z,1.40
2022-08-02T17:50:13.387Z,1.63
2022-08-02T17:55:21.906Z,1.83
2022-08-02T18:00:30.941Z,1.50
2022-08-02T18:05:53.039Z,1.58
2022-08-02T18:11:04.596Z,1.20
2022-08-02T18:16:21.198Z,1.42
2022-08-02T18:21:31.641Z,1.35
2022-08-02T18:26:43.512Z,1.60
2022-08-02T18:31:51.137Z,1.58
2022-08-02T18:37:05.616Z,1.60
2022-08-02T18:42:40.664Z,1.60
2022-08-02T18:47:51.004Z,1.50
2022-08-02T18:52:58.251Z,2.20
2022-08-02T18:58:17.865Z,1.58
2022-08-02T19:03:28.818Z,2.13
2022-08-02T19:08:35.302Z,1.63
2022-08-02T19:13:46.774Z,2.35
2022-08-02T19:18:52.313Z,2.13
2022-08-02T19:23:58.384Z,2.40
2022-08-02T19:29:08.754Z,2.15
2022-08-02T19:34:16.906Z,2.00
2022-08-02T19:39:22.007Z,2.00
2022-08-02T19:44:34.588Z,1.80
2022-08-02T19:49:40.838Z,2.05
2022-08-02T19:54:55.689Z,2.13
2022-08-02T20:00:04.860Z,2.08
2022-08-02T20:05:23.900Z,2.72
2022-08-02T20:10:33.596Z,1.83
2022-08-02T20:15:56.392Z,2.40
2022-08-02T20:21:03.260Z,2.63
2022-08-02T20:26:09.081Z,2.45
2022-08-02T20:31:16.654Z,2.72
2022-08-02T20:36:23.566Z,3.00
2022-08-02T20:41:36.363Z,3.28
2022-08-02T20:46:45.336Z,2.97
2022-08-02T20:51:50.442Z,2.97
2022-08-02T20:56:55.388Z,3.13
2022-08-02T21:02:03.434Z,2.50
2022-08-02T21:07:08.686Z,3.20
2022-08-02T21:12:17.967Z,2.88
2022-08-02T21:17:42.504Z,2.80
2022-08-02T21:22:54.726Z,3.17
2022-08-02T21:28:00.406Z,2.73
2022-08-02T21:33:17.782Z,3.13
2022-08-02T21:38:35.724Z,3.35
2022-08-02T21:43:43.958Z,2.80
2022-08-02T21:48:51.611Z,3.50
2022-08-02T21:54:18.304Z,2.93
2022-08-02T21:59:25.848Z,3.57
2022-08-02T22:04:35.045Z,2.70
2022-08-02T22:15:06.024Z,2.80
2022-08-02T22:20:20.843Z,3.50
2022-08-02T22:25:37.533Z,3.23
2022-08-02T22:30:43.032Z,3.40
2022-08-02T22:35:51.927Z,2.70
2022-08-02T22:40:57.119Z,2.87
2022-08-02T22:46:02.426Z,3.27
2022-08-02T22:51:10.068Z,3.23
2022-08-02T22:56:16.456Z,3.20
2022-08-02T22:59:04.208Z,3.10
2022-08-02T23:01:21.521Z,3.43
2022-08-02T23:06:29.008Z,3.43
2022-08-02T23:11:33.961Z,3.33
2022-08-02T23:16:52.862Z,3.57
2022-08-02T23:22:02.793Z,3.50
2022-08-02T23:27:08.273Z,2.93
2022-08-02T23:32:13.756Z,2.87
2022-08-02T23:37:21.310Z,3.30
2022-08-02T23:42:26.561Z,3.03
2022-08-02T23:47:31.458Z,3.43
2022-08-02T23:52:38.974Z,3.93
2022-08-02T23:57:44.030Z,3.27
